createdAt,value
2019-05-01T00:01:33.806Z,3.90
2019-05-01T00:04:20.410Z,3.90
2019-05-01T00:07:02.342Z,3.90
2019-05-01T00:09:42.354Z,3.80
2019-05-01T00:12:17.122Z,3.80
2019-05-01T00:14:48.544Z,3.70
2019-05-01T00:17:20.882Z,3.70
2019-05-01T00:19:52.286Z,3.60
2019-05-01T00:22:32.597Z,3.70
2019-05-01T00:25:01.014Z,3.70
2019-05-01T00:27:31.081Z,3.60
2019-05-01T00:30:01.205Z,3.60
2019-05-01T00:32:36.910Z,3.60
2019-05-01T00:35:08.429Z,3.60
2019-05-01T00:37:43.905Z,3.60
2019-05-01T00:40:16.982Z,3.60
2019-05-01T00:42:45.421Z,3.60
2019-05-01T00:45:20.101Z,3.60
2019-05-01T00:47:52.770Z,3.50
2019-05-01T00:50:22.767Z,3.50
2019-05-01T00:52:53.661Z,3.50
2019-05-01T00:55:38.698Z,3.40
2019-05-01T00:58:15.070Z,3.40
2019-05-01T01:01:01.659Z,3.30
2019-05-01T01:03:34.392Z,3.30
2019-05-01T01:06:14.209Z,3.30
2019-05-01T01:08:44.273Z,3.30
2019-05-01T01:11:12.694Z,3.30
2019-05-01T01:13:42.757Z,3.20
2019-05-01T01:16:11.190Z,3.20
2019-05-01T01:18:39.609Z,3.20
2019-05-01T01:21:08.158Z,3.20
2019-05-01T01:23:41.553Z,3.20
2019-05-01T01:26:11.997Z,3.20
2019-05-01T01:28:52.729Z,3.20
2019-05-01T01:31:24.186Z,3.20
2019-05-01T01:33:52.601Z,3.10
2019-05-01T01:36:29.830Z,3.10
2019-05-01T01:39:01.526Z,3.00
2019-05-01T01:41:29.940Z,3.00
2019-05-01T01:44:02.761Z,3.00
2019-05-01T01:46:41.841Z,3.00
2019-05-01T01:49:12.341Z,2.90
2019-05-01T01:51:41.173Z,2.90
2019-05-01T01:54:11.661Z,2.90
2019-05-01T01:56:46.448Z,2.90
2019-05-01T01:59:18.384Z,2.80
2019-05-01T02:01:57.186Z,2.80
2019-05-01T02:04:30.121Z,2.80
2019-05-01T02:07:01.401Z,2.80
2019-05-01T02:09:32.677Z,2.80
2019-05-01T02:12:05.577Z,2.80
2019-05-01T02:14:40.422Z,2.80
2019-05-01T02:17:20.733Z,2.70
2019-05-01T02:19:51.396Z,2.70
2019-05-01T02:22:22.479Z,2.70
2019-05-01T02:24:53.498Z,2.70
2019-05-01T02:27:26.264Z,2.70
2019-05-01T02:30:04.941Z,2.70
2019-05-01T02:32:46.547Z,2.70
2019-05-01T02:35:18.418Z,2.60
2019-05-01T02:37:48.681Z,2.60
2019-05-01T02:40:49.261Z,2.60
2019-05-01T02:43:18.915Z,2.50
2019-05-01T02:45:58.545Z,2.50
2019-05-01T02:48:34.100Z,2.50
2019-05-01T02:51:07.192Z,2.50
2019-05-01T02:53:40.330Z,2.50
2019-05-01T02:56:23.641Z,2.50
2019-05-01T02:58:55.383Z,2.50
2019-05-01T03:01:24.569Z,2.50
2019-05-01T03:03:58.000Z,2.50
2019-05-01T03:06:28.984Z,2.50
2019-05-01T03:09:01.072Z,2.40
2019-05-01T03:11:30.731Z,2.40
2019-05-01T03:14:05.526Z,2.40
2019-05-01T03:16:39.073Z,2.40
2019-05-01T03:19:10.530Z,2.30
2019-05-01T03:21:40.589Z,2.30
2019-05-01T03:24:19.571Z,2.20
2019-05-01T03:26:51.249Z,2.20
2019-05-01T03:29:20.534Z,2.20
2019-05-01T03:32:15.278Z,2.20
2019-05-01T03:34:29.714Z,2.10
2019-05-01T03:37:01.715Z,2.10
2019-05-01T03:39:33.353Z,2.20
2019-05-01T03:42:04.643Z,2.20
2019-05-01T03:44:36.159Z,2.10
2019-05-01T03:47:04.743Z,2.10
2019-05-01T03:49:33.649Z,2.10
2019-05-01T03:52:02.142Z,2.10
2019-05-01T03:54:35.702Z,2.20
2019-05-01T03:57:04.305Z,2.20
2019-05-01T03:59:36.185Z,2.20
2019-05-01T04:02:32.093Z,2.20
2019-05-01T04:04:57.023Z,2.20
2019-05-01T04:07:28.530Z,2.30
2019-05-01T04:09:57.178Z,2.30
2019-05-01T04:12:25.782Z,2.40
2019-05-01T04:14:59.876Z,2.40
2019-05-01T04:17:38.562Z,2.40
2019-05-01T04:20:10.105Z,2.50
2019-05-01T04:22:38.606Z,2.50
2019-05-01T04:25:13.381Z,2.60
2019-05-01T04:27:46.528Z,2.60
2019-05-01T04:30:37.634Z,2.60
2019-05-01T04:33:11.183Z,2.60
2019-05-01T04:35:49.961Z,2.70
2019-05-01T04:38:24.606Z,2.80
2019-05-01T04:41:02.370Z,2.90
2019-05-01T04:43:30.960Z,3.10
2019-05-01T04:45:59.450Z,3.60
2019-05-01T04:48:28.732Z,4.10
2019-05-01T04:51:00.099Z,4.40
2019-05-01T04:53:32.195Z,4.70
2019-05-01T04:56:05.245Z,4.70
2019-05-01T04:58:38.794Z,4.80
2019-05-01T05:01:21.979Z,4.80
2019-05-01T05:03:54.625Z,4.90
2019-05-01T05:06:28.728Z,5.00
2019-05-01T05:08:57.498Z,5.00
2019-05-01T05:11:44.213Z,5.10
2019-05-01T05:14:17.161Z,5.20
2019-05-01T05:16:53.525Z,5.40
2019-05-01T05:19:22.633Z,5.50
2019-05-01T05:21:54.282Z,5.60
2019-05-01T05:24:22.981Z,5.70
2019-05-01T05:27:00.827Z,5.80
2019-05-01T05:29:31.398Z,5.90
2019-05-01T05:32:06.309Z,5.90
2019-05-01T05:34:35.578Z,5.90
2019-05-01T05:37:07.449Z,6.00
2019-05-01T05:39:45.823Z,6.00
2019-05-01T05:42:17.557Z,6.00
2019-05-01T05:44:47.797Z,6.10
2019-05-01T05:47:19.288Z,6.30
2019-05-01T05:49:47.781Z,6.60
2019-05-01T05:52:35.737Z,6.90
2019-05-01T05:55:21.784Z,7.20
2019-05-01T05:57:56.445Z,7.50
2019-05-01T06:00:37.149Z,7.80
2019-05-01T06:03:31.327Z,8.00
2019-05-01T06:06:19.013Z,8.00
2019-05-01T06:08:49.928Z,8.20
2019-05-01T06:11:43.313Z,8.40
2019-05-01T06:14:20.369Z,8.70
2019-05-01T06:16:56.758Z,9.00
2019-05-01T06:19:29.333Z,9.30
2019-05-01T06:22:10.172Z,9.60
2019-05-01T06:24:46.033Z,10.00
2019-05-01T06:27:17.526Z,10.30
2019-05-01T06:29:46.601Z,10.70
2019-05-01T06:32:15.029Z,11.10
2019-05-01T06:34:43.601Z,11.40
2019-05-01T06:37:15.054Z,11.60
2019-05-01T06:39:48.054Z,11.90
2019-05-01T06:42:17.955Z,12.00
2019-05-01T06:44:57.173Z,12.10
2019-05-01T06:47:46.408Z,12.20
2019-05-01T06:50:32.141Z,12.30
2019-05-01T06:53:04.730Z,12.30
2019-05-01T06:55:35.104Z,12.30
2019-05-01T06:58:03.967Z,12.30
2019-05-01T07:00:34.317Z,12.30
2019-05-01T07:03:06.029Z,12.40
2019-05-01T07:05:35.262Z,12.40
2019-05-01T07:08:07.002Z,12.50
2019-05-01T07:10:43.647Z,12.50
2019-05-01T07:13:06.611Z,12.60
2019-05-01T07:15:37.942Z,12.80
2019-05-01T07:18:06.365Z,13.10
2019-05-01T07:20:47.225Z,13.20
2019-05-01T07:23:17.367Z,13.40
2019-05-01T07:25:47.985Z,13.60
2019-05-01T07:28:16.673Z,13.70
2019-05-01T07:30:49.845Z,13.80
2019-05-01T07:33:27.126Z,13.80
2019-05-01T07:36:01.288Z,13.80
2019-05-01T07:38:33.085Z,13.70
2019-05-01T07:41:03.755Z,13.70
2019-05-01T07:43:55.006Z,13.70
2019-05-01T07:46:41.126Z,13.60
2019-05-01T07:49:12.973Z,13.70
2019-05-01T07:51:52.821Z,13.90
2019-05-01T07:54:29.873Z,14.00
2019-05-01T07:57:03.238Z,14.30
2019-05-01T07:59:36.706Z,14.50
2019-05-01T08:02:08.750Z,14.60
2019-05-01T08:04:39.830Z,14.70
2019-05-01T08:07:11.001Z,14.60
2019-05-01T08:09:45.937Z,14.50
2019-05-01T08:12:24.133Z,14.30
2019-05-01T08:14:54.253Z,14.20
2019-05-01T08:17:24.565Z,13.90
2019-05-01T08:19:57.386Z,13.60
2019-05-01T08:22:39.098Z,13.40
2019-05-01T08:25:11.859Z,13.20
2019-05-01T08:27:50.988Z,13.10
2019-05-01T08:30:27.997Z,13.10
2019-05-01T08:33:17.210Z,13.10
2019-05-01T08:35:54.430Z,13.20
2019-05-01T08:38:29.761Z,13.60
2019-05-01T08:41:03.587Z,14.20
2019-05-01T08:43:33.577Z,14.70
2019-05-01T08:46:11.949Z,15.20
2019-05-01T08:48:52.089Z,15.40
2019-05-01T08:51:23.242Z,15.70
2019-05-01T08:53:57.725Z,16.30
2019-05-01T08:56:32.853Z,16.70
2019-05-01T08:59:25.820Z,16.70
2019-05-01T09:02:07.932Z,16.70
2019-05-01T09:04:25.257Z,16.50
2019-05-01T09:06:54.369Z,16.40
2019-05-01T09:09:23.776Z,16.40
2019-05-01T09:11:54.553Z,16.60
2019-05-01T09:14:35.170Z,17.00
2019-05-01T09:17:05.936Z,18.00
2019-05-01T09:19:37.494Z,20.20
2019-05-01T09:22:07.721Z,23.00
2019-05-01T09:24:38.133Z,24.90
2019-05-01T09:27:29.254Z,25.60
2019-05-01T09:30:04.141Z,25.70
2019-05-01T09:32:36.909Z,25.70
2019-05-01T09:35:15.468Z,26.10
2019-05-01T09:37:39.316Z,26.20
2019-05-01T09:40:11.381Z,25.80
2019-05-01T09:42:39.862Z,25.40
2019-05-01T09:45:10.393Z,24.80
2019-05-01T09:47:38.814Z,24.10
2019-05-01T09:50:16.329Z,23.20
2019-05-01T09:52:59.705Z,22.40
2019-05-01T09:55:36.390Z,21.80
2019-05-01T09:58:04.801Z,21.70
2019-05-01T10:00:36.473Z,22.10
2019-05-01T10:03:13.174Z,22.30
2019-05-01T10:05:42.899Z,22.30
2019-05-01T10:08:12.597Z,22.00
2019-05-01T10:10:44.037Z,21.50
2019-05-01T10:13:17.742Z,21.00
2019-05-01T10:15:50.988Z,20.30
2019-05-01T10:18:21.053Z,19.70
2019-05-01T10:20:52.458Z,19.50
2019-05-01T10:23:20.881Z,19.10
2019-05-01T10:25:50.954Z,18.70
2019-05-01T10:28:21.175Z,18.50
2019-05-01T10:31:11.856Z,18.30
2019-05-01T10:33:39.278Z,18.40
2019-05-01T10:36:18.876Z,18.60
2019-05-01T10:38:46.867Z,18.80
2019-05-01T10:41:16.201Z,19.10
2019-05-01T10:43:47.867Z,19.40
2019-05-01T10:46:19.014Z,19.50
2019-05-01T10:48:50.521Z,19.50
2019-05-01T10:51:19.145Z,19.50
2019-05-01T10:53:54.411Z,19.60
2019-05-01T10:56:24.055Z,19.70
2019-05-01T10:58:58.378Z,19.80
2019-05-01T11:01:47.873Z,19.70
2019-05-01T11:04:25.197Z,19.60
2019-05-01T11:06:55.341Z,19.60
2019-05-01T11:09:23.757Z,19.60
2019-05-01T11:11:52.263Z,19.80
2019-05-01T11:14:21.048Z,20.00
2019-05-01T11:16:49.537Z,20.40
2019-05-01T11:19:17.979Z,20.80
2019-05-01T11:21:49.233Z,21.30
2019-05-01T11:24:20.681Z,21.80
2019-05-01T11:26:49.270Z,22.00
2019-05-01T11:29:17.685Z,22.10
2019-05-01T11:31:56.537Z,22.20
2019-05-01T11:34:43.205Z,22.30
2019-05-01T11:37:29.850Z,22.30
2019-05-01T11:40:00.398Z,22.50
2019-05-01T11:42:33.206Z,22.90
2019-05-01T11:45:01.621Z,23.00
2019-05-01T11:47:34.597Z,22.80
2019-05-01T11:50:07.392Z,23.00
2019-05-01T11:52:35.818Z,23.30
2019-05-01T11:55:07.621Z,24.00
2019-05-01T11:57:42.261Z,24.50
2019-05-01T12:00:10.655Z,24.50
2019-05-01T12:02:39.334Z,24.30
2019-05-01T12:05:08.101Z,24.50
2019-05-01T12:07:36.653Z,24.60
2019-05-01T12:10:14.381Z,24.80
2019-05-01T12:12:45.914Z,25.10
2019-05-01T12:15:15.217Z,25.30
2019-05-01T12:17:51.115Z,25.60
2019-05-01T12:20:22.745Z,25.80
2019-05-01T12:22:55.737Z,25.90
2019-05-01T12:25:26.604Z,25.90
2019-05-01T12:27:55.016Z,25.60
2019-05-01T12:30:29.041Z,25.00
2019-05-01T12:33:00.382Z,24.40
2019-05-01T12:35:33.517Z,24.10
2019-05-01T12:38:11.779Z,23.80
2019-05-01T12:40:40.174Z,23.50
2019-05-01T12:43:12.351Z,23.20
2019-05-01T12:45:45.478Z,23.00
2019-05-01T12:48:15.566Z,22.80
2019-05-01T12:50:48.382Z,22.40
2019-05-01T12:53:21.600Z,22.00
2019-05-01T12:56:11.134Z,21.70
2019-05-01T12:58:44.705Z,21.60
2019-05-01T13:01:17.107Z,21.60
2019-05-01T13:03:45.633Z,21.60
2019-05-01T13:06:16.926Z,21.70
2019-05-01T13:08:47.861Z,21.70
2019-05-01T13:11:19.186Z,21.70
2019-05-01T13:13:50.502Z,21.80
2019-05-01T13:16:26.055Z,21.70
2019-05-01T13:18:57.415Z,21.80
2019-05-01T13:21:25.846Z,21.90
2019-05-01T13:23:54.525Z,21.90
2019-05-01T13:26:39.682Z,21.80
2019-05-01T13:29:18.882Z,21.70
2019-05-01T13:32:00.769Z,21.50
2019-05-01T13:34:33.106Z,21.30
2019-05-01T13:37:04.312Z,21.00
2019-05-01T13:39:35.526Z,20.70
2019-05-01T13:42:09.088Z,20.50
2019-05-01T13:44:40.697Z,20.30
2019-05-01T13:47:15.069Z,20.10
2019-05-01T13:49:43.747Z,20.00
2019-05-01T13:52:12.958Z,20.00
2019-05-01T13:54:41.369Z,20.00
2019-05-01T13:57:12.561Z,19.90
2019-05-01T13:59:45.597Z,19.90
2019-05-01T14:02:15.539Z,19.90
2019-05-01T14:04:47.057Z,20.00
2019-05-01T14:07:18.226Z,20.00
2019-05-01T14:09:52.793Z,20.10
2019-05-01T14:12:21.213Z,20.10
2019-05-01T14:14:51.272Z,20.10
2019-05-01T14:17:22.542Z,20.20
2019-05-01T14:19:52.593Z,20.10
2019-05-01T14:22:38.733Z,20.10
2019-05-01T14:25:17.573Z,20.00
2019-05-01T14:27:46.321Z,20.00
2019-05-01T14:30:15.077Z,20.00
2019-05-01T14:32:43.506Z,19.80
2019-05-01T14:35:15.069Z,19.70
2019-05-01T14:37:43.497Z,19.70
2019-05-01T14:40:15.485Z,19.60
2019-05-01T14:42:43.921Z,19.70
2019-05-01T14:45:15.391Z,19.80
2019-05-01T14:47:43.828Z,19.80
2019-05-01T14:50:13.868Z,19.80
2019-05-01T14:52:43.846Z,19.90
2019-05-01T14:55:21.010Z,20.10
2019-05-01T14:57:52.141Z,20.10
2019-05-01T15:00:29.453Z,20.00
2019-05-01T15:02:59.861Z,19.90
2019-05-01T15:05:37.478Z,19.70
2019-05-01T15:08:11.815Z,19.70
2019-05-01T15:10:40.292Z,19.60
2019-05-01T15:13:32.617Z,19.40
2019-05-01T15:16:07.330Z,19.30
2019-05-01T15:18:56.050Z,19.20
2019-05-01T15:21:24.525Z,19.00
2019-05-01T15:23:55.921Z,18.70
2019-05-01T15:26:27.062Z,18.50
2019-05-01T15:28:59.981Z,18.30
2019-05-01T15:31:37.254Z,18.20
2019-05-01T15:34:09.241Z,18.10
2019-05-01T15:36:41.719Z,18.10
2019-05-01T15:39:11.785Z,18.10
2019-05-01T15:42:03.605Z,18.10
2019-05-01T15:44:36.761Z,18.10
2019-05-01T15:47:08.305Z,18.20
2019-05-01T15:49:39.433Z,18.10
2019-05-01T15:52:10.354Z,18.10
2019-05-01T15:54:38.794Z,18.10
2019-05-01T15:57:10.153Z,18.10
2019-05-01T15:59:41.903Z,18.10
2019-05-01T16:02:13.309Z,18.10
2019-05-01T16:04:48.988Z,18.00
2019-05-01T16:07:23.461Z,18.00
2019-05-01T16:09:56.482Z,17.90
2019-05-01T16:12:26.550Z,17.90
2019-05-01T16:14:55.467Z,17.80
2019-05-01T16:17:26.457Z,17.70
2019-05-01T16:19:57.846Z,17.60
2019-05-01T16:22:29.398Z,17.60
2019-05-01T16:24:57.881Z,17.60
2019-05-01T16:27:26.311Z,17.60
2019-05-01T16:29:54.791Z,17.50
2019-05-01T16:32:29.364Z,17.40
2019-05-01T16:35:00.771Z,17.40
2019-05-01T16:37:29.289Z,17.40
2019-05-01T16:39:59.739Z,17.40
2019-05-01T16:42:32.871Z,17.30
2019-05-01T16:45:03.016Z,17.30
2019-05-01T16:47:35.468Z,17.30
2019-05-01T16:50:08.485Z,17.40
2019-05-01T16:52:38.113Z,17.40
2019-05-01T16:55:07.573Z,17.40
2019-05-01T16:57:39.065Z,17.40
2019-05-01T17:00:11.970Z,17.30
2019-05-01T17:02:48.181Z,17.30
2019-05-01T17:05:37.693Z,17.30
2019-05-01T17:08:07.757Z,17.20
2019-05-01T17:10:50.053Z,17.10
2019-05-01T17:13:18.816Z,17.00
2019-05-01T17:15:51.410Z,16.80
2019-05-01T17:18:19.910Z,16.80
2019-05-01T17:20:49.132Z,16.70
2019-05-01T17:23:17.578Z,16.50
2019-05-01T17:25:46.253Z,16.40
2019-05-01T17:28:14.678Z,16.30
2019-05-01T17:30:51.761Z,16.20
2019-05-01T17:33:21.652Z,16.10
2019-05-01T17:35:50.614Z,16.00
2019-05-01T17:38:19.075Z,16.00
2019-05-01T17:40:51.980Z,15.80
2019-05-01T17:43:23.905Z,15.80
2019-05-01T17:45:55.441Z,15.70
2019-05-01T17:48:23.894Z,15.70
2019-05-01T17:51:00.044Z,15.60
2019-05-01T17:53:30.010Z,15.50
2019-05-01T17:56:28.425Z,15.50
2019-05-01T17:58:59.653Z,15.40
2019-05-01T18:01:53.990Z,15.20
2019-05-01T18:04:47.827Z,15.20
2019-05-01T18:07:18.198Z,15.20
2019-05-01T18:09:46.645Z,15.10
2019-05-01T18:12:16.515Z,15.00
2019-05-01T18:14:46.489Z,15.00
2019-05-01T18:17:19.316Z,14.90
2019-05-01T18:19:56.581Z,14.90
2019-05-01T18:22:43.913Z,14.80
2019-05-01T18:25:18.753Z,14.80
2019-05-01T18:27:55.772Z,14.70
2019-05-01T18:30:43.417Z,14.70
2019-05-01T18:33:14.576Z,14.60
2019-05-01T18:35:44.930Z,14.60
2019-05-01T18:38:37.286Z,14.50
2019-05-01T18:41:07.356Z,14.50
2019-05-01T18:43:36.815Z,14.40
2019-05-01T18:46:08.185Z,14.30
2019-05-01T18:48:39.692Z,14.30
2019-05-01T18:51:16.405Z,14.30
2019-05-01T18:53:41.341Z,14.30
2019-05-01T18:56:12.427Z,14.20
2019-05-01T18:58:41.125Z,14.20
2019-05-01T19:01:10.935Z,14.10
2019-05-01T19:03:50.214Z,14.10
2019-05-01T19:06:18.710Z,14.00
2019-05-01T19:08:48.958Z,14.00
2019-05-01T19:11:18.052Z,13.90
2019-05-01T19:13:46.869Z,13.90
2019-05-01T19:16:22.795Z,13.80
2019-05-01T19:18:53.940Z,13.70
2019-05-01T19:21:26.597Z,13.70
2019-05-01T19:24:05.924Z,13.60
2019-05-01T19:26:42.562Z,13.60
2019-05-01T19:29:10.340Z,13.50
2019-05-01T19:31:38.803Z,13.50
2019-05-01T19:34:08.949Z,13.40
2019-05-01T19:36:40.343Z,13.30
2019-05-01T19:39:17.089Z,13.20
2019-05-01T19:41:49.214Z,13.20
2019-05-01T19:44:21.196Z,13.10
2019-05-01T19:46:52.566Z,13.00
2019-05-01T19:49:28.984Z,12.90
2019-05-01T19:52:00.757Z,12.70
2019-05-01T19:54:29.992Z,12.60
2019-05-01T19:57:04.201Z,12.40
2019-05-01T19:59:35.429Z,12.30
2019-05-01T20:02:17.193Z,12.20
2019-05-01T20:04:52.400Z,12.10
2019-05-01T20:07:21.612Z,12.00
2019-05-01T20:09:56.953Z,11.90
2019-05-01T20:12:23.326Z,11.90
2019-05-01T20:15:00.822Z,11.90
2019-05-01T20:17:39.849Z,11.80
2019-05-01T20:20:08.537Z,11.80
2019-05-01T20:22:48.154Z,11.80
2019-05-01T20:25:19.407Z,11.80
2019-05-01T20:27:53.231Z,11.70
2019-05-01T20:30:24.781Z,11.60
2019-05-01T20:32:58.156Z,11.50
2019-05-01T20:35:28.448Z,11.40
2019-05-01T20:37:59.565Z,11.30
2019-05-01T20:40:30.933Z,11.30
2019-05-01T20:43:05.803Z,11.10
2019-05-01T20:45:33.024Z,11.10
2019-05-01T20:48:04.238Z,11.00
2019-05-01T20:50:32.672Z,10.90
2019-05-01T20:53:04.057Z,10.80
2019-05-01T20:55:39.313Z,10.70
2019-05-01T20:58:22.781Z,10.60
2019-05-01T21:00:53.655Z,10.50
2019-05-01T21:03:25.962Z,10.30
2019-05-01T21:06:02.846Z,10.20
2019-05-01T21:08:45.477Z,10.20
2019-05-01T21:11:21.326Z,10.10
2019-05-01T21:13:56.657Z,10.00
2019-05-01T21:16:23.486Z,9.90
2019-05-01T21:18:52.645Z,9.80
2019-05-01T21:21:25.734Z,9.80
2019-05-01T21:23:57.214Z,9.70
2019-05-01T21:26:33.438Z,9.60
2019-05-01T21:29:05.709Z,9.60
2019-05-01T21:31:36.827Z,9.50
2019-05-01T21:34:16.881Z,9.40
2019-05-01T21:36:52.503Z,9.40
2019-05-01T21:39:20.372Z,9.30
2019-05-01T21:41:53.176Z,9.20
2019-05-01T21:44:24.441Z,9.20
2019-05-01T21:46:54.509Z,9.10
2019-05-01T21:49:34.679Z,9.00
2019-05-01T21:52:07.243Z,9.00
2019-05-01T21:54:34.893Z,8.90
2019-05-01T21:57:12.061Z,8.90
2019-05-01T21:59:44.751Z,8.90
2019-05-01T22:02:21.845Z,8.80
2019-05-01T22:04:53.210Z,8.80
2019-05-01T22:07:23.810Z,8.70
2019-05-01T22:09:59.338Z,8.70
2019-05-01T22:12:28.558Z,8.60
2019-05-01T22:15:06.264Z,8.60
2019-05-01T22:17:52.731Z,8.50
2019-05-01T22:20:25.784Z,8.50
2019-05-01T22:22:55.926Z,8.40
2019-05-01T22:25:37.414Z,8.40
2019-05-01T22:28:18.792Z,8.30
2019-05-01T22:30:54.773Z,8.30
2019-05-01T22:33:29.641Z,8.20
2019-05-01T22:35:59.713Z,8.20
2019-05-01T22:38:32.485Z,8.10
2019-05-01T22:41:06.751Z,8.10
2019-05-01T22:43:54.967Z,8.00
2019-05-01T22:46:25.042Z,8.00
2019-05-01T22:48:53.833Z,8.00
2019-05-01T22:51:30.062Z,7.90
2019-05-01T22:54:06.014Z,7.80
2019-05-01T22:56:39.937Z,7.70
2019-05-01T22:59:11.902Z,7.70
2019-05-01T23:01:49.166Z,7.70
2019-05-01T23:04:23.799Z,7.60
2019-05-01T23:06:57.934Z,7.60
2019-05-01T23:09:28.554Z,7.50
2019-05-01T23:12:06.026Z,7.50
2019-05-01T23:14:34.509Z,7.50
2019-05-01T23:17:19.761Z,7.50
2019-05-01T23:19:48.185Z,7.50
2019-05-01T23:22:16.682Z,7.40
2019-05-01T23:24:48.055Z,7.40
2019-05-01T23:27:18.124Z,7.30
2019-05-01T23:29:51.137Z,7.30
2019-05-01T23:32:20.062Z,7.20
2019-05-01T23:34:48.485Z,7.20
2019-05-01T23:37:16.919Z,7.20
2019-05-01T23:39:48.094Z,7.10
2019-05-01T23:42:19.232Z,7.10
2019-05-01T23:44:49.289Z,7.10
2019-05-01T23:47:18.202Z,7.00
2019-05-01T23:49:52.616Z,7.00
2019-05-01T23:52:26.203Z,7.00
2019-05-01T23:54:54.614Z,7.00
2019-05-01T23:57:26.173Z,6.90
2019-05-01T23:59:57.657Z,6.90
